UGKO Airport Information

Runway Information
Runway 08 Length 8202 ft width 144 ft
Elevation 197 ft Threshold 0 ft Heading 81
Runway 26 Length 8202 ft Width 144 ft
Elevation 223 ft Threshold 0 ft Heading 261
Airport Frequencies
Type TWR Name KUTAISI TW Frequency 125.5 MHZ
Airport Navaids
Type VOR-DME Name Kutaisi Frequency 113600 KHZ
Type NDB Name Kutaisi Frequency 477 KHZ
Type NDB Name Kutaisi Frequency 842 KHZ
Airport Weather Information & NOTAM
ADDS - METARS form results

(1057 UTC 24 January 2020)
Data provider http://aviationweather.gov/metar/data/
 
METAR text: UGKO 241030Z 27008KT 9999 SCT026 BKN041 03/01 Q1026 R25/29//50 NOSIG
Conditions at: UGKO (KOPITNARI , GE) observed 1030 UTC 24 January 2020
Temperature: 3.0°C (37°F)
Dewpoint: 1.0°C (34°F) [RH = 87%]
Pressure (altimeter): 30.30 inches Hg (1026.0 mb)
Winds: from the W (270 degrees) at 9 MPH (8 knots; 4.1 m/s)
Visibility: 6 or more miles (10+ km)
Ceiling: 4100 feet AGL
Clouds: scattered clouds at 2600 feet AGL
broken clouds at 4100 feet AGL
Weather: no significant weather observed at this time

METAR text: UGKO 241000Z 25013KT 9999 SCT011 BKN039 04/02 Q1026 R25/29//50 NOSIG
Conditions at: UGKO (KOPITNARI , GE) observed 1000 UTC 24 January 2020
Temperature: 4.0°C (39°F)
Dewpoint: 2.0°C (36°F) [RH = 87%]
Pressure (altimeter): 30.30 inches Hg (1026.0 mb)
Winds: from the WSW (250 degrees) at 15 MPH (13 knots; 6.7 m/s)
Visibility: 6 or more miles (10+ km)
Ceiling: 3900 feet AGL
Clouds: scattered clouds at 1100 feet AGL
broken clouds at 3900 feet AGL
Weather: no significant weather observed at this time

Forecast for: UGKO (KOPITNARI , GE)
Text: TAF UGKO 240500Z 2406/2506 25010KT 9999 SCT023 OVC040 TX05/2411Z TNM01/2504Z
Forecast period: 0600 UTC 24 January 2020 to 0600 UTC 25 January 2020
Forecast type: FROM: standard forecast or significant change
Winds: from the WSW (250 degrees) at 12 MPH (10 knots; 5.1 m/s)
Visibility: 6 or more miles 10+ km)
Ceiling: 4000 feet AGL
Clouds: scattered clouds at 2300 feet AGL
overcast cloud deck at 4000 feet AGL
Weather: no significant weather forecast for this period
Text: TEMPO 2406/2412 25015G25KT 3000 SNRA SCT007 BKN017
Forecast period: 0600 to 1200 UTC 24 January 2020
Forecast type: TEMPORARY: The following changes expected for less than half the time period
Winds: from the WSW (250 degrees) at 17 MPH (15 knots; 7.7 m/s)
gusting to 29 MPH (25 knots; 12.9 m/s)
Visibility: 1.86 miles (2.99 km)
Ceiling: 1700 feet AGL
Clouds: scattered clouds at 700 feet AGL
broken clouds at 1700 feet AGL
Weather: SN RA  (moderate snow, moderate rain)